createdAt,value
2024-03-29T00:02:39.861Z,3
2024-03-29T00:12:47.281Z,3
2024-03-29T00:22:54.328Z,4
2024-03-29T00:33:01.196Z,2
2024-03-29T00:43:08.858Z,2
2024-03-29T00:53:15.726Z,2
2024-03-29T01:03:23.194Z,3
2024-03-29T01:13:29.677Z,3
2024-03-29T01:23:35.711Z,2
2024-03-29T01:33:43.058Z,3
2024-03-29T01:43:48.949Z,2
2024-03-29T01:53:54.789Z,2
2024-03-29T02:04:00.452Z,1
2024-03-29T02:14:07.133Z,2
2024-03-29T02:24:13.502Z,2
2024-03-29T02:34:18.892Z,1
2024-03-29T02:44:25.625Z,2
2024-03-29T02:54:31.236Z,2
2024-03-29T03:04:37.476Z,3
2024-03-29T03:14:42.545Z,5
2024-03-29T03:24:46.146Z,5
2024-03-29T03:34:51.143Z,3
2024-03-29T03:44:59.027Z,3
2024-03-29T03:55:04.741Z,2
2024-03-29T04:05:10.692Z,3
2024-03-29T04:15:17.298Z,4
2024-03-29T04:25:24.098Z,3
2024-03-29T04:35:31.188Z,3
2024-03-29T04:45:37.922Z,3
2024-03-29T04:55:45.535Z,3
2024-03-29T05:05:51.450Z,3
2024-03-29T05:15:58.691Z,4
2024-03-29T05:26:04.595Z,2
2024-03-29T05:36:11.663Z,3
2024-03-29T05:46:18.736Z,3
2024-03-29T05:56:26.590Z,14
2024-03-29T06:06:33.765Z,4
2024-03-29T06:16:40.082Z,4
2024-03-29T06:26:44.554Z,2
2024-03-29T06:36:49.685Z,3
2024-03-29T06:46:56.363Z,2
2024-03-29T06:57:01.166Z,4
2024-03-29T07:07:07.634Z,5
2024-03-29T07:17:13.887Z,2
2024-03-29T07:27:20.270Z,4
2024-03-29T07:37:27.252Z,6
2024-03-29T07:47:34.267Z,3
2024-03-29T07:57:40.874Z,3
2024-03-29T08:07:48.123Z,4
2024-03-29T08:17:55.102Z,2
2024-03-29T08:28:02.529Z,2
2024-03-29T08:38:09.676Z,5
2024-03-29T08:48:16.492Z,2
2024-03-29T08:58:24.083Z,2
2024-03-29T09:08:33.727Z,2
2024-03-29T09:18:38.046Z,2
2024-03-29T09:28:44.741Z,2
2024-03-29T09:38:52.352Z,4
2024-03-29T09:48:57.936Z,4
2024-03-29T09:59:05.666Z,2
2024-03-29T10:09:12.442Z,2
2024-03-29T10:19:19.284Z,2
2024-03-29T10:29:26.267Z,3
2024-03-29T10:39:33.838Z,3
2024-03-29T10:49:40.633Z,7
2024-03-29T10:59:48.998Z,4
2024-03-29T14:01:59.079Z,3
2024-03-29T14:12:06.135Z,2
2024-03-29T14:32:18.916Z,4
2024-03-29T14:42:25.950Z,3
2024-03-29T14:52:31.733Z,5
2024-03-29T15:02:38.268Z,6
2024-03-29T15:12:45.023Z,5
2024-03-29T15:22:52.176Z,10
2024-03-29T15:32:58.740Z,5
2024-03-29T15:43:06.068Z,12
2024-03-29T15:53:12.656Z,15
2024-03-29T16:03:19.288Z,19
2024-03-29T16:13:26.138Z,23
2024-03-29T16:23:31.744Z,27
2024-03-29T16:33:37.624Z,27
2024-03-29T16:43:44.215Z,24
2024-03-29T16:53:51.292Z,30
2024-03-29T17:03:57.635Z,30
2024-03-29T17:14:04.050Z,31
2024-03-29T17:24:10.472Z,29
2024-03-29T17:34:15.376Z,27
2024-03-29T17:44:23.144Z,29
2024-03-29T17:54:30.234Z,49
2024-03-29T18:04:36.436Z,40
2024-03-29T18:14:43.082Z,57
2024-03-29T18:24:49.570Z,56
2024-03-29T18:34:56.862Z,59
2024-03-29T18:45:03.603Z,55
2024-03-29T18:55:10.706Z,61
2024-03-29T19:05:16.642Z,58
2024-03-29T19:15:23.515Z,68
2024-03-29T19:25:29.548Z,71
2024-03-29T19:35:36.851Z,64
2024-03-29T19:45:44.472Z,75
2024-03-29T19:55:51.029Z,68
2024-03-29T20:05:57.881Z,69
2024-03-29T20:16:04.192Z,71
2024-03-29T20:26:10.729Z,75
2024-03-29T20:36:17.333Z,71
2024-03-29T20:46:27.247Z,69
2024-03-29T20:56:33.294Z,58
2024-03-29T21:06:39.244Z,77
2024-03-29T21:16:45.777Z,64
2024-03-29T21:26:51.375Z,60
2024-03-29T21:36:58.915Z,53
2024-03-29T21:47:07.620Z,56
2024-03-29T21:57:11.316Z,62
2024-03-29T22:07:17.108Z,61
2024-03-29T22:17:23.294Z,54
2024-03-29T22:27:31.232Z,48
2024-03-29T22:37:37.960Z,57
2024-03-29T22:47:44.746Z,46
2024-03-29T22:57:50.338Z,44
2024-03-29T23:07:56.552Z,41
2024-03-29T23:18:03.060Z,41
2024-03-29T23:28:09.913Z,47
2024-03-29T23:38:15.454Z,44
2024-03-29T23:48:20.968Z,44
2024-03-29T23:58:28.696Z,42
